Time;durP1;ratioP1;P1;durP2;ratioP2;P2;SDS_P1;SDS_P2;PMS_P1;PMS_P2;Temp;Humidity;BMP_temperature;BMP_pressure;BME280_temperature;BME280_humidity;BME280_pressure;Samples;Min_cycle;Max_cycle;Signal;HPM_P1;HPM_P2
2021/05/16 00:00:50;;;;;;;3.90;1.10;;;11.80;99.90;;;;;;5077898;28;20509;-60
2021/05/16 00:03:15;;;;;;;2.40;0.90;;;11.90;99.90;;;;;;5075840;28;20164;-60
2021/05/16 00:05:41;;;;;;;1.93;1.17;;;11.90;99.90;;;;;;5074553;28;20197;-59
2021/05/16 00:08:08;;;;;;;1.83;1.00;;;11.70;99.90;;;;;;5075202;28;20170;-60
2021/05/16 00:10:34;;;;;;;2.10;0.97;;;11.70;99.90;;;;;;5074464;28;20948;-60
2021/05/16 00:13:00;;;;;;;1.33;1.07;;;11.80;99.90;;;;;;5074543;28;20491;-60
2021/05/16 00:15:28;;;;;;;2.80;1.43;;;11.70;99.90;;;;;;5056230;28;20204;-60
2021/05/16 00:17:54;;;;;;;1.07;0.87;;;11.70;99.90;;;;;;5074251;28;20411;-58
2021/05/16 00:20:23;;;;;;;3.50;1.30;;;11.80;99.90;;;;;;5074975;28;20826;-59
2021/05/16 00:22:49;;;;;;;3.60;1.37;;;11.80;99.90;;;;;;5074411;28;20412;-59
2021/05/16 00:25:18;;;;;;;2.00;1.10;;;11.70;99.90;;;;;;5074537;28;20483;-60
2021/05/16 00:27:44;;;;;;;1.17;1.00;;;11.80;99.90;;;;;;5074513;28;20250;-60
2021/05/16 00:30:14;;;;;;;2.70;1.23;;;11.90;99.90;;;;;;5074042;28;20400;-60
2021/05/16 00:32:40;;;;;;;1.67;1.00;;;12.00;99.90;;;;;;5074235;28;20418;-57
2021/05/16 00:35:08;;;;;;;4.63;1.40;;;12.00;99.90;;;;;;5073974;28;21009;-60
2021/05/16 00:37:35;;;;;;;2.63;1.00;;;12.00;99.90;;;;;;5077174;28;20166;-60
2021/05/16 00:40:01;;;;;;;2.53;1.10;;;12.00;99.90;;;;;;5074232;28;20400;-61
2021/05/16 00:42:27;;;;;;;2.17;1.20;;;12.00;99.90;;;;;;5074186;28;20415;-61
2021/05/16 00:45:02;;;;;;;3.00;1.30;;;12.00;99.90;;;;;;5073802;28;20585;-60
2021/05/16 00:47:28;;;;;;;1.63;1.17;;;12.10;99.90;;;;;;5073753;28;20249;-60
2021/05/16 00:49:55;;;;;;;6.40;1.27;;;12.10;99.90;;;;;;5073846;28;20440;-59
2021/05/16 00:52:22;;;;;;;1.63;1.03;;;12.30;99.90;;;;;;5074325;28;20158;-61
2021/05/16 00:54:49;;;;;;;1.73;1.20;;;12.40;99.90;;;;;;5073421;28;20444;-60
2021/05/16 00:57:15;;;;;;;1.83;1.10;;;12.30;99.90;;;;;;5073775;28;20980;-60
2021/05/16 00:59:41;;;;;;;2.90;1.27;;;12.30;99.90;;;;;;5073673;28;20491;-60
2021/05/16 01:02:06;;;;;;;1.90;1.20;;;12.30;99.90;;;;;;5055671;28;20570;-60
2021/05/16 01:04:32;;;;;;;3.93;1.13;;;12.30;99.90;;;;;;5053792;28;20180;-61
2021/05/16 01:06:58;;;;;;;2.63;1.27;;;12.40;99.90;;;;;;5055232;28;20170;-52
2021/05/16 01:09:24;;;;;;;3.10;1.50;;;12.30;99.90;;;;;;5053599;28;20400;-54
2021/05/16 01:11:51;;;;;;;3.00;1.50;;;12.30;99.90;;;;;;5054137;28;20202;-53
2021/05/16 01:14:42;;;;;;;2.07;1.30;;;12.40;99.90;;;;;;5053577;28;20436;-55
2021/05/16 01:17:03;;;;;;;2.30;0.97;;;12.50;99.90;;;;;;5053033;28;20425;-55
2021/05/16 01:19:33;;;;;;;2.53;1.10;;;12.40;99.90;;;;;;5053613;28;20893;-53
2021/05/16 01:22:00;;;;;;;2.70;1.17;;;12.20;99.90;;;;;;5053648;28;20163;-53
2021/05/16 01:24:28;;;;;;;2.63;1.63;;;12.10;99.90;;;;;;5053580;28;20539;-55
2021/05/16 01:26:54;;;;;;;1.60;0.93;;;12.10;99.90;;;;;;5053504;28;20421;-53
2021/05/16 01:29:22;;;;;;;1.83;1.10;;;12.10;99.90;;;;;;5053451;28;20405;-51
2021/05/16 01:31:48;;;;;;;2.47;1.47;;;12.30;99.90;;;;;;5068511;28;20400;-54
2021/05/16 01:34:15;;;;;;;4.77;1.43;;;12.50;99.90;;;;;;5073580;28;20454;-54
2021/05/16 01:36:41;;;;;;;1.43;1.13;;;12.40;99.90;;;;;;5073454;28;20416;-55
2021/05/16 01:39:10;;;;;;;3.73;1.40;;;12.30;99.90;;;;;;5073408;28;20454;-52
2021/05/16 01:41:36;;;;;;;2.30;1.17;;;12.20;99.90;;;;;;5073972;28;20935;-53
2021/05/16 01:44:03;;;;;;;3.40;1.30;;;12.20;99.90;;;;;;5073367;28;20462;-53
2021/05/16 01:46:29;;;;;;;4.67;1.33;;;12.20;99.90;;;;;;5054784;28;20462;-53
2021/05/16 01:48:54;;;;;;;3.77;1.53;;;12.20;99.90;;;;;;5073331;28;20396;-55
2021/05/16 01:51:20;;;;;;;2.20;1.50;;;12.10;99.90;;;;;;5073609;28;20491;-54
2021/05/16 01:53:48;;;;;;;4.13;1.27;;;12.20;99.90;;;;;;5070281;28;20170;-51
2021/05/16 01:56:29;;;;;;;4.63;1.30;;;12.10;99.90;;;;;;5062307;28;20291;-52
2021/05/16 01:58:57;;;;;;;2.17;1.50;;;12.10;99.90;;;;;;5054719;28;20416;-55
2021/05/16 02:01:23;;;;;;;2.50;1.50;;;12.10;99.90;;;;;;5065400;28;20436;-52
2021/05/16 02:03:50;;;;;;;3.27;1.50;;;12.00;99.90;;;;;;5073662;28;20432;-54
2021/05/16 02:06:17;;;;;;;2.63;1.60;;;12.10;99.90;;;;;;5073721;28;20451;-55
2021/05/16 02:08:45;;;;;;;2.70;1.17;;;12.10;99.90;;;;;;5078682;28;20416;-54
2021/05/16 02:11:10;;;;;;;2.23;1.20;;;12.10;99.90;;;;;;5078882;28;20398;-55
2021/05/16 02:13:39;;;;;;;3.80;1.47;;;12.10;99.90;;;;;;5078752;28;20458;-54
2021/05/16 02:16:05;;;;;;;3.03;1.30;;;11.90;99.90;;;;;;5078054;28;20455;-51
2021/05/16 02:18:31;;;;;;;2.20;1.30;;;11.90;99.90;;;;;;5078249;28;20893;-52
2021/05/16 02:20:56;;;;;;;1.97;1.57;;;12.00;99.90;;;;;;5078118;28;20484;-53
2021/05/16 02:23:22;;;;;;;2.60;1.30;;;11.90;99.90;;;;;;5077044;28;20197;-55
2021/05/16 02:25:51;;;;;;;3.17;1.63;;;11.80;99.90;;;;;;5076816;28;20220;-54
2021/05/16 02:28:17;;;;;;;1.83;1.17;;;11.90;99.90;;;;;;5077442;28;20196;-52
2021/05/16 02:30:43;;;;;;;3.07;1.40;;;11.90;99.90;;;;;;5076654;28;20461;-54
2021/05/16 02:33:09;;;;;;;1.57;1.40;;;11.80;99.90;;;;;;5076616;28;20404;-52
2021/05/16 02:35:35;;;;;;;3.17;1.37;;;11.80;99.90;;;;;;5076930;28;20539;-52
2021/05/16 02:38:01;;;;;;;1.80;1.43;;;11.80;99.90;;;;;;5076660;28;20158;-52
2021/05/16 02:40:27;;;;;;;1.73;1.43;;;11.70;99.90;;;;;;5076399;28;20410;-50
2021/05/16 02:42:53;;;;;;;1.83;1.50;;;11.70;99.90;;;;;;5076422;28;20170;-52
2021/05/16 02:45:18;;;;;;;3.87;1.90;;;11.70;99.90;;;;;;5078643;28;21012;-54
2021/05/16 02:47:44;;;;;;;2.17;1.50;;;11.70;99.90;;;;;;5076204;28;20256;-52
2021/05/16 02:50:12;;;;;;;3.40;1.40;;;11.70;99.90;;;;;;5076525;28;20166;-54
2021/05/16 02:52:38;;;;;;;3.87;1.53;;;11.80;99.90;;;;;;5076615;28;20197;-55
2021/05/16 02:55:05;;;;;;;4.13;1.70;;;11.70;99.90;;;;;;5076339;28;20459;-52
2021/05/16 02:57:30;;;;;;;4.43;1.60;;;11.80;99.90;;;;;;5076809;28;20401;-53
2021/05/16 02:59:56;;;;;;;3.77;1.90;;;11.80;99.90;;;;;;5076160;28;20408;-55
2021/05/16 03:02:22;;;;;;;2.83;1.50;;;11.90;99.90;;;;;;5055887;28;20205;-54
2021/05/16 03:04:48;;;;;;;2.23;1.70;;;12.00;99.90;;;;;;5055740;28;20170;-52
2021/05/16 03:07:13;;;;;;;1.30;1.20;;;11.90;99.90;;;;;;5056301;28;20166;-52
2021/05/16 03:09:39;;;;;;;1.87;1.17;;;12.10;99.90;;;;;;5056163;28;20171;-53
2021/05/16 03:12:06;;;;;;;1.13;0.90;;;12.30;99.90;;;;;;5055783;28;20166;-52
2021/05/16 03:14:34;;;;;;;4.57;1.40;;;12.40;99.90;;;;;;5055718;28;20206;-55
2021/05/16 03:17:00;;;;;;;3.90;1.50;;;12.40;99.90;;;;;;5055444;28;20822;-54
2021/05/16 03:19:26;;;;;;;1.50;1.30;;;12.50;99.90;;;;;;5055784;28;20437;-53
2021/05/16 03:21:52;;;;;;;1.90;1.27;;;12.60;99.90;;;;;;5055974;28;20440;-54
2021/05/16 03:24:18;;;;;;;3.17;1.30;;;12.50;99.90;;;;;;5055620;28;20405;-55
2021/05/16 03:26:45;;;;;;;2.17;1.27;;;12.60;99.90;;;;;;5055688;28;20429;-55
2021/05/16 03:29:11;;;;;;;1.83;1.27;;;12.70;99.90;;;;;;5055535;28;20409;-53
2021/05/16 03:31:37;;;;;;;1.90;1.43;;;12.70;99.90;;;;;;5055184;28;20405;-52
2021/05/16 03:34:04;;;;;;;2.80;1.43;;;12.70;99.90;;;;;;5055268;28;20401;-55
2021/05/16 03:36:29;;;;;;;2.10;1.60;;;12.70;99.90;;;;;;5055639;28;20202;-53
2021/05/16 03:38:55;;;;;;;2.13;1.40;;;12.50;99.90;;;;;;5055423;28;20401;-55
2021/05/16 03:41:21;;;;;;;4.80;1.30;;;12.60;99.90;;;;;;5055317;28;20521;-53
2021/05/16 03:43:48;;;;;;;2.50;1.20;;;12.70;99.90;;;;;;5055459;28;20401;-54
2021/05/16 03:46:14;;;;;;;3.30;1.43;;;12.60;99.90;;;;;;5054973;28;20232;-52
2021/05/16 03:48:40;;;;;;;2.93;1.27;;;12.60;99.90;;;;;;5054997;28;20809;-55
2021/05/16 03:51:05;;;;;;;1.70;1.23;;;12.60;99.90;;;;;;5055145;28;20574;-53
2021/05/16 03:53:31;;;;;;;1.90;1.03;;;12.50;99.90;;;;;;5055230;28;20209;-51
2021/05/16 03:55:57;;;;;;;2.10;1.63;;;12.40;99.90;;;;;;5055249;28;20205;-54
2021/05/16 03:58:23;;;;;;;3.53;1.40;;;12.40;99.90;;;;;;5055023;28;20199;-52
2021/05/16 04:00:49;;;;;;;2.07;1.50;;;12.40;99.90;;;;;;5054927;28;20182;-53
2021/05/16 04:03:14;;;;;;;2.03;1.27;;;12.40;99.90;;;;;;5054765;28;20894;-51
2021/05/16 04:05:40;;;;;;;2.23;1.60;;;12.40;99.90;;;;;;5054942;28;20219;-53
2021/05/16 04:08:06;;;;;;;2.40;1.67;;;12.30;99.90;;;;;;5054764;28;20204;-52
2021/05/16 04:10:32;;;;;;;5.47;1.53;;;12.50;99.90;;;;;;5055393;28;20632;-55
2021/05/16 04:12:58;;;;;;;2.00;1.17;;;12.50;99.90;;;;;;5054545;28;20775;-54
2021/05/16 04:15:23;;;;;;;4.30;1.80;;;12.40;99.90;;;;;;5054101;28;20293;-54
2021/05/16 04:17:49;;;;;;;2.80;1.27;;;12.50;99.90;;;;;;5054532;28;20238;-51
2021/05/16 04:20:14;;;;;;;1.60;1.17;;;12.50;99.90;;;;;;5054569;28;20166;-53
2021/05/16 04:22:40;;;;;;;1.90;1.40;;;12.40;99.90;;;;;;5054322;28;20170;-53
2021/05/16 04:25:06;;;;;;;1.70;1.10;;;12.40;99.90;;;;;;5054207;28;20269;-52
2021/05/16 04:27:32;;;;;;;3.23;1.40;;;12.40;99.90;;;;;;5054454;28;20185;-55
2021/05/16 04:29:58;;;;;;;1.73;1.10;;;12.30;99.90;;;;;;5054068;28;20405;-54
2021/05/16 04:32:23;;;;;;;1.00;0.90;;;12.40;99.90;;;;;;5054351;28;20194;-55
2021/05/16 04:34:49;;;;;;;4.00;1.83;;;12.40;99.90;;;;;;5053990;28;20507;-55
2021/05/16 04:37:15;;;;;;;2.23;1.13;;;12.30;99.90;;;;;;5054716;28;20492;-52
2021/05/16 04:39:40;;;;;;;3.00;1.30;;;12.30;99.90;;;;;;5054150;28;20171;-53
2021/05/16 04:42:07;;;;;;;2.60;1.37;;;12.20;99.90;;;;;;5054080;28;20170;-55
2021/05/16 04:44:32;;;;;;;1.70;1.20;;;12.00;99.90;;;;;;5054019;28;20609;-53
2021/05/16 04:46:58;;;;;;;1.53;1.17;;;12.00;99.90;;;;;;5060133;28;21027;-53
2021/05/16 04:49:23;;;;;;;2.70;1.30;;;12.00;99.90;;;;;;5081089;28;20205;-54
2021/05/16 04:51:49;;;;;;;3.60;1.33;;;11.80;99.90;;;;;;5074465;28;20166;-55
2021/05/16 04:54:15;;;;;;;1.90;1.20;;;11.80;99.90;;;;;;5073828;28;20165;-53
2021/05/16 04:56:40;;;;;;;3.17;1.20;;;11.90;99.90;;;;;;5073796;28;20178;-54
2021/05/16 04:59:06;;;;;;;1.87;1.10;;;12.00;99.90;;;;;;5073663;28;20171;-52
2021/05/16 05:01:32;;;;;;;1.77;1.30;;;12.00;99.90;;;;;;5073764;28;20170;-50
2021/05/16 05:03:59;;;;;;;1.60;1.10;;;12.00;99.90;;;;;;5073538;28;20162;-51
2021/05/16 05:06:25;;;;;;;1.77;1.10;;;11.90;99.90;;;;;;5073710;28;20204;-50
2021/05/16 05:08:51;;;;;;;1.57;1.10;;;11.90;99.90;;;;;;5073639;28;20403;-51
2021/05/16 05:11:17;;;;;;;2.03;1.27;;;12.00;99.90;;;;;;5073475;28;20821;-51
2021/05/16 05:13:42;;;;;;;1.47;1.10;;;12.10;99.90;;;;;;5073900;28;20193;-51
2021/05/16 05:16:08;;;;;;;1.47;1.03;;;12.30;99.90;;;;;;5073131;28;20544;-52
2021/05/16 05:18:33;;;;;;;3.17;1.30;;;12.50;99.90;;;;;;5073591;28;20587;-53
2021/05/16 05:21:00;;;;;;;1.30;1.10;;;12.60;99.90;;;;;;5074155;28;20166;-54
2021/05/16 05:23:27;;;;;;;1.10;0.83;;;12.60;99.90;;;;;;5074050;28;20554;-54
2021/05/16 05:25:54;;;;;;;1.20;1.00;;;12.60;99.90;;;;;;5073444;28;20432;-53
2021/05/16 05:28:20;;;;;;;3.63;1.07;;;12.50;99.90;;;;;;5073404;28;20411;-54
2021/05/16 05:30:46;;;;;;;4.63;1.40;;;12.60;99.90;;;;;;5073378;28;20417;-54
2021/05/16 05:33:12;;;;;;;2.20;1.00;;;12.50;99.90;;;;;;5073154;28;20313;-53
2021/05/16 05:35:37;;;;;;;1.67;1.10;;;12.60;99.90;;;;;;5073240;28;20689;-51
2021/05/16 05:38:03;;;;;;;1.50;1.00;;;12.70;99.90;;;;;;5073270;28;20659;-54
2021/05/16 05:40:28;;;;;;;2.10;1.23;;;12.90;99.90;;;;;;5073230;28;20167;-51
2021/05/16 05:42:54;;;;;;;2.40;0.80;;;12.60;99.90;;;;;;5072377;28;20161;-51
2021/05/16 05:45:20;;;;;;;1.20;0.70;;;12.50;99.90;;;;;;5073156;28;20193;-51
2021/05/16 05:47:45;;;;;;;2.60;1.00;;;12.60;99.90;;;;;;5073387;28;20514;-51
2021/05/16 05:50:11;;;;;;;2.73;0.83;;;12.60;99.90;;;;;;5073102;28;20536;-55
2021/05/16 05:52:38;;;;;;;1.00;0.80;;;12.40;99.90;;;;;;5073368;28;20193;-51
2021/05/16 05:55:04;;;;;;;1.90;1.17;;;12.60;99.90;;;;;;5073414;28;20211;-54
2021/05/16 05:57:30;;;;;;;1.33;1.20;;;12.80;99.90;;;;;;5073449;28;20407;-52
2021/05/16 05:59:55;;;;;;;2.37;1.30;;;12.80;99.90;;;;;;5073389;28;20399;-54
2021/05/16 06:02:21;;;;;;;5.73;1.00;;;13.00;99.90;;;;;;5072585;28;20225;-51
2021/05/16 06:04:47;;;;;;;1.10;0.70;;;13.00;99.90;;;;;;5072836;28;20249;-53
2021/05/16 06:07:12;;;;;;;4.33;0.93;;;13.10;99.90;;;;;;5073653;28;20522;-54
2021/05/16 06:09:38;;;;;;;0.90;0.80;;;13.00;99.90;;;;;;5073293;28;20637;-54
2021/05/16 06:12:06;;;;;;;1.77;0.93;;;13.10;99.90;;;;;;5073096;28;20620;-52
2021/05/16 06:14:32;;;;;;;2.03;1.10;;;12.90;99.90;;;;;;5073130;28;20176;-51
2021/05/16 06:16:58;;;;;;;1.30;0.93;;;12.70;99.90;;;;;;5055036;28;20408;-51
2021/05/16 06:19:35;;;;;;;1.30;0.83;;;12.60;99.90;;;;;;5072847;28;20487;-52
2021/05/16 06:22:01;;;;;;;1.10;1.00;;;12.60;99.90;;;;;;5073205;28;20160;-52
2021/05/16 06:24:27;;;;;;;1.30;0.97;;;12.60;99.90;;;;;;5072966;28;20404;-52
2021/05/16 06:26:52;;;;;;;3.60;0.90;;;12.60;99.90;;;;;;5072850;28;20188;-54
2021/05/16 06:29:18;;;;;;;1.83;0.90;;;12.60;99.90;;;;;;5073192;28;20170;-51
2021/05/16 06:31:44;;;;;;;1.93;1.00;;;12.60;99.90;;;;;;5072683;28;20169;-55
2021/05/16 06:34:10;;;;;;;1.70;0.90;;;12.70;99.90;;;;;;5072799;28;20250;-55
2021/05/16 06:36:36;;;;;;;3.30;1.07;;;12.80;99.90;;;;;;5072763;28;20202;-52
2021/05/16 06:39:04;;;;;;;1.80;1.00;;;12.90;99.90;;;;;;5073006;28;20396;-52
2021/05/16 06:41:30;;;;;;;3.50;0.80;;;13.00;99.90;;;;;;5075543;28;20460;-52
2021/05/16 06:43:55;;;;;;;1.47;0.87;;;13.00;99.90;;;;;;5073207;28;20389;-51
2021/05/16 06:46:21;;;;;;;1.20;0.83;;;13.10;99.90;;;;;;5072474;28;20187;-52
2021/05/16 06:48:47;;;;;;;1.10;0.83;;;13.30;99.90;;;;;;5072590;28;20245;-54
2021/05/16 06:51:13;;;;;;;2.77;1.20;;;13.40;99.90;;;;;;5072736;28;20177;-54
2021/05/16 06:53:39;;;;;;;1.87;1.10;;;13.50;99.90;;;;;;5074441;28;20158;-53
2021/05/16 06:56:08;;;;;;;1.53;0.87;;;13.60;99.90;;;;;;5076063;28;20848;-51
2021/05/16 06:58:34;;;;;;;2.83;0.93;;;13.90;99.90;;;;;;5086917;28;20162;-51
2021/05/16 07:00:59;;;;;;;2.97;1.00;;;14.00;99.90;;;;;;5075978;28;20898;-51
2021/05/16 07:03:25;;;;;;;2.70;0.73;;;14.20;99.90;;;;;;5057305;28;20477;-51
2021/05/16 07:05:51;;;;;;;2.07;1.00;;;14.50;99.90;;;;;;5087745;23;20589;-58
2021/05/16 07:08:16;;;;;;;1.43;0.80;;;14.80;99.90;;;;;;5075852;28;20252;-58
2021/05/16 07:10:42;;;;;;;1.47;1.07;;;15.10;99.90;;;;;;5076006;28;20164;-58
2021/05/16 07:13:08;;;;;;;2.40;1.17;;;15.20;99.90;;;;;;5075622;28;20170;-58
2021/05/16 07:15:34;;;;;;;3.53;1.17;;;15.20;99.90;;;;;;5075136;28;20202;-58
2021/05/16 07:17:59;;;;;;;0.93;0.80;;;15.60;99.90;;;;;;5075243;28;20820;-58
2021/05/16 07:20:25;;;;;;;1.33;0.70;;;15.50;99.90;;;;;;5075656;28;20171;-59
2021/05/16 07:22:51;;;;;;;3.47;0.90;;;15.30;99.90;;;;;;5075643;28;20201;-59
2021/05/16 07:25:17;;;;;;;2.40;1.20;;;15.00;99.90;;;;;;5075294;28;20407;-59
2021/05/16 07:27:44;;;;;;;2.40;0.93;;;14.80;99.90;;;;;;5075614;28;20226;-59
2021/05/16 07:30:11;;;;;;;2.10;0.80;;;14.90;99.90;;;;;;5075218;28;20411;-59
2021/05/16 07:32:37;;;;;;;3.43;0.83;;;14.90;99.90;;;;;;5075139;28;20437;-59
2021/05/16 07:35:03;;;;;;;1.20;0.80;;;15.10;99.90;;;;;;5074982;28;20445;-59
2021/05/16 07:37:29;;;;;;;3.10;1.00;;;15.50;99.90;;;;;;5075054;28;20415;-59
2021/05/16 07:39:55;;;;;;;1.60;0.90;;;15.60;99.90;;;;;;5068386;28;20416;-59
2021/05/16 07:42:21;;;;;;;1.87;1.00;;;15.60;99.90;;;;;;5062481;28;20538;-58
2021/05/16 07:44:46;;;;;;;2.57;1.27;;;15.80;99.90;;;;;;5055418;28;20408;-59
2021/05/16 07:47:12;;;;;;;1.77;1.07;;;16.00;99.90;;;;;;5054545;28;20188;-58
2021/05/16 07:49:38;;;;;;;2.23;0.83;;;15.40;99.90;;;;;;5054691;28;20163;-58
2021/05/16 07:52:03;;;;;;;1.43;1.00;;;15.10;99.90;;;;;;5054914;28;20288;-59
2021/05/16 07:54:29;;;;;;;2.47;1.40;;;15.00;99.90;;;;;;5055728;28;20174;-59
2021/05/16 07:56:57;;;;;;;1.30;0.80;;;15.20;99.90;;;;;;5054899;28;20702;-58
2021/05/16 07:59:23;;;;;;;3.80;1.00;;;15.20;99.90;;;;;;5054742;28;20734;-58
2021/05/16 08:01:48;;;;;;;2.83;1.30;;;15.30;99.90;;;;;;5069457;28;20498;-59
2021/05/16 08:04:14;;;;;;;2.70;1.27;;;15.70;99.90;;;;;;5056036;28;20171;-58
2021/05/16 08:06:40;;;;;;;1.43;1.00;;;15.80;99.90;;;;;;5073993;28;20209;-57
2021/05/16 08:09:05;;;;;;;1.50;0.83;;;15.60;99.90;;;;;;5047190;28;20265;-57
2021/05/16 08:11:31;;;;;;;2.83;1.60;;;14.90;99.90;;;;;;5064289;28;20179;-58
2021/05/16 08:13:56;;;;;;;2.23;1.00;;;14.60;99.90;;;;;;5057781;28;20255;-58
2021/05/16 08:16:22;;;;;;;1.90;0.90;;;14.70;99.90;;;;;;5054048;28;20195;-59
2021/05/16 08:18:50;;;;;;;3.00;1.10;;;14.60;99.90;;;;;;5054294;28;20175;-57
2021/05/16 08:21:16;;;;;;;4.27;1.43;;;14.60;99.90;;;;;;5054199;28;20666;-58
2021/05/16 08:23:42;;;;;;;1.93;1.00;;;14.20;99.90;;;;;;5054274;28;20405;-58
2021/05/16 08:26:07;;;;;;;3.00;1.50;;;14.40;99.90;;;;;;5054199;28;20189;-58
2021/05/16 08:28:33;;;;;;;2.70;1.20;;;14.50;99.90;;;;;;5054199;28;20185;-58
2021/05/16 08:30:58;;;;;;;4.67;1.73;;;14.50;99.90;;;;;;5061953;28;20187;-57
2021/05/16 08:33:24;;;;;;;1.67;1.00;;;14.50;99.90;;;;;;5073815;28;20180;-59
2021/05/16 08:35:50;;;;;;;3.23;1.60;;;14.50;99.90;;;;;;5073741;28;20200;-59
2021/05/16 08:38:15;;;;;;;2.93;1.40;;;14.50;99.90;;;;;;5076550;28;20259;-59
2021/05/16 08:40:41;;;;;;;3.60;1.13;;;14.50;99.90;;;;;;5074158;28;20643;-59
2021/05/16 08:43:07;;;;;;;2.20;1.10;;;14.40;99.90;;;;;;5074100;28;20172;-59
2021/05/16 08:45:33;;;;;;;2.70;0.90;;;14.50;99.90;;;;;;5073864;28;20191;-59
2021/05/16 08:47:59;;;;;;;1.53;1.10;;;14.90;99.90;;;;;;5073505;28;20180;-59
2021/05/16 08:50:26;;;;;;;3.03;1.37;;;15.30;99.90;;;;;;5073948;28;20407;-59
2021/05/16 08:52:53;;;;;;;4.30;1.37;;;15.20;99.90;;;;;;5073781;28;20752;-59
2021/05/16 08:55:19;;;;;;;1.17;1.07;;;15.30;99.90;;;;;;5073413;28;20483;-59
2021/05/16 08:57:45;;;;;;;3.67;1.60;;;15.30;99.90;;;;;;5073771;28;20419;-59
2021/05/16 09:00:12;;;;;;;4.23;1.53;;;15.40;99.90;;;;;;5072122;28;20641;-60
2021/05/16 09:03:10;;;;;;;3.90;1.50;;;15.60;99.90;;;;;;5053505;28;20169;-59
2021/05/16 09:05:39;;;;;;;2.67;1.00;;;15.70;99.90;;;;;;5053337;28;20476;-59
2021/05/16 09:08:16;;;;;;;4.57;1.43;;;16.00;99.90;;;;;;5053748;28;20485;-60
2021/05/16 09:10:54;;;;;;;3.07;1.57;;;15.90;99.90;;;;;;5054208;28;20381;-59
2021/05/16 09:13:33;;;;;;;5.20;1.83;;;16.00;99.90;;;;;;5053570;28;20380;-59
2021/05/16 09:16:00;;;;;;;3.63;1.33;;;16.30;99.90;;;;;;5052915;28;20457;-59
2021/05/16 09:18:37;;;;;;;2.50;1.37;;;16.20;99.90;;;;;;5053290;28;20399;-59
2021/05/16 09:21:28;;;;;;;2.80;1.47;;;16.30;99.90;;;;;;5053378;28;20435;-60
2021/05/16 09:24:03;;;;;;;3.33;1.40;;;16.40;99.90;;;;;;5053663;28;20782;-59
2021/05/16 09:26:30;;;;;;;3.37;1.40;;;16.20;99.90;;;;;;5053734;28;20538;-59
2021/05/16 09:29:15;;;;;;;5.10;1.30;;;16.20;99.90;;;;;;5053713;28;20407;-59
2021/05/16 09:31:41;;;;;;;3.57;1.60;;;16.20;99.90;;;;;;5069179;28;20749;-57
2021/05/16 09:34:10;;;;;;;3.60;1.23;;;16.60;99.90;;;;;;5074433;28;20411;-57
2021/05/16 09:36:37;;;;;;;3.67;1.47;;;16.90;99.90;;;;;;5073505;28;20256;-57
2021/05/16 09:39:44;;;;;;;2.33;1.27;;;17.30;99.90;;;;;;5073041;28;20974;-57
2021/05/16 09:42:14;;;;;;;4.00;1.50;;;17.70;99.90;;;;;;4972749;28;20420;-58
2021/05/16 09:44:47;;;;;;;4.00;1.20;;;17.80;99.90;;;;;;4972222;28;21012;-56
2021/05/16 09:47:27;;;;;;;4.70;1.50;;;17.80;99.50;;;;;;5028917;28;20432;-58
2021/05/16 09:50:01;;;;;;;3.40;1.67;;;17.70;99.30;;;;;;5073017;28;20398;-58
2021/05/16 09:52:29;;;;;;;3.03;1.40;;;17.50;99.00;;;;;;5073393;28;20379;-58
2021/05/16 09:55:08;;;;;;;3.73;1.60;;;17.60;99.30;;;;;;5073114;28;20901;-57
2021/05/16 09:57:37;;;;;;;3.00;1.20;;;17.60;98.60;;;;;;5073422;28;20452;-58
2021/05/16 10:00:09;;;;;;;5.57;1.63;;;17.80;97.40;;;;;;5072667;28;20407;-58
2021/05/16 10:02:34;;;;;;;3.57;2.13;;;18.00;99.00;;;;;;5072566;28;20408;-58
2021/05/16 10:05:02;;;;;;;2.93;1.23;;;18.00;99.10;;;;;;5072684;28;20423;-58
2021/05/16 10:07:29;;;;;;;4.00;1.93;;;17.80;96.90;;;;;;5072759;28;20486;-58
2021/05/16 10:09:56;;;;;;;5.33;2.10;;;18.00;99.40;;;;;;5073139;28;20965;-58
2021/05/16 10:12:23;;;;;;;4.00;1.70;;;18.20;97.20;;;;;;5073116;28;20458;-57
2021/05/16 10:15:07;;;;;;;2.70;1.40;;;18.60;99.30;;;;;;5072944;28;20501;-56
2021/05/16 10:17:36;;;;;;;5.43;1.03;;;18.80;96.60;;;;;;5072888;28;20388;-57
2021/05/16 10:20:14;;;;;;;4.70;1.67;;;19.30;95.70;;;;;;5072764;28;20462;-56
2021/05/16 10:22:41;;;;;;;3.60;1.20;;;19.20;94.00;;;;;;5072983;28;20857;-58
2021/05/16 10:25:08;;;;;;;1.97;1.20;;;19.40;95.60;;;;;;5072463;28;20880;-58
2021/05/16 10:27:45;;;;;;;2.90;1.20;;;19.80;93.70;;;;;;5072441;28;20462;-58
2021/05/16 10:30:12;;;;;;;4.40;1.40;;;19.70;93.00;;;;;;5076598;28;20439;-58
2021/05/16 10:32:47;;;;;;;3.23;1.27;;;19.50;92.00;;;;;;5076399;28;20408;-58
2021/05/16 10:35:14;;;;;;;2.27;1.10;;;19.40;92.30;;;;;;5076188;28;20435;-58
2021/05/16 10:37:54;;;;;;;2.13;1.10;;;19.70;94.40;;;;;;5076857;28;20943;-58
2021/05/16 10:40:20;;;;;;;3.17;1.40;;;19.90;92.20;;;;;;5076518;28;20747;-58
2021/05/16 10:42:47;;;;;;;3.27;1.13;;;19.50;91.00;;;;;;5076495;28;20404;-58
2021/05/16 10:45:29;;;;;;;2.60;1.13;;;19.60;91.20;;;;;;5076103;28;20407;-58
2021/05/16 10:47:56;;;;;;;4.17;1.53;;;19.70;92.00;;;;;;5077742;28;20491;-58
2021/05/16 10:50:25;;;;;;;3.83;1.40;;;19.50;90.70;;;;;;5076089;28;20408;-58
2021/05/16 10:53:18;;;;;;;3.87;1.47;;;19.00;91.10;;;;;;5076252;28;20408;-58
2021/05/16 10:55:50;;;;;;;2.80;1.23;;;18.60;93.40;;;;;;5046087;28;20468;-58
2021/05/16 10:58:33;;;;;;;2.70;1.40;;;18.60;94.10;;;;;;5076031;28;20389;-59
2021/05/16 11:01:15;;;;;;;4.47;1.30;;;19.00;92.90;;;;;;5067618;28;20440;-58
2021/05/16 11:03:48;;;;;;;3.00;1.37;;;19.40;92.20;;;;;;5061166;28;20427;-58
2021/05/16 11:06:19;;;;;;;3.23;1.30;;;20.10;91.30;;;;;;5067856;28;20463;-58
2021/05/16 11:08:50;;;;;;;4.50;1.47;;;19.70;90.00;;;;;;5076028;28;20746;-58
2021/05/16 11:11:39;;;;;;;2.33;1.10;;;19.70;92.20;;;;;;5075809;28;20416;-59
2021/05/16 11:14:26;;;;;;;2.60;1.40;;;20.00;90.70;;;;;;5075645;28;20428;-57
2021/05/16 11:16:57;;;;;;;3.67;1.80;;;20.20;88.90;;;;;;5075161;28;20438;-59
2021/05/16 11:19:25;;;;;;;3.43;1.40;;;20.90;86.40;;;;;;5075471;28;20436;-59
2021/05/16 11:21:51;;;;;;;2.00;1.20;;;21.90;82.20;;;;;;5075462;28;20433;-59
2021/05/16 11:24:32;;;;;;;3.60;1.20;;;22.10;86.50;;;;;;5075313;28;20915;-59
2021/05/16 11:26:58;;;;;;;3.77;1.30;;;22.50;81.20;;;;;;5075410;28;20878;-59
2021/05/16 11:29:24;;;;;;;2.50;1.10;;;24.20;73.30;;;;;;5075262;28;20451;-59
2021/05/16 11:32:02;;;;;;;1.27;0.80;;;26.30;73.20;;;;;;5075016;28;20185;-59
2021/05/16 11:34:28;;;;;;;2.27;1.00;;;26.50;64.50;;;;;;5075251;28;20416;-59
2021/05/16 11:36:54;;;;;;;3.13;1.23;;;25.90;62.90;;;;;;5075415;28;20420;-59
2021/05/16 11:39:20;;;;;;;3.07;1.47;;;26.60;63.40;;;;;;5075379;28;20420;-59
2021/05/16 11:41:46;;;;;;;1.83;1.10;;;27.00;59.70;;;;;;5075559;28;20170;-59
2021/05/16 11:44:21;;;;;;;3.83;1.20;;;26.80;58.00;;;;;;5075982;28;20400;-59
2021/05/16 11:46:48;;;;;;;1.87;0.90;;;27.60;57.30;;;;;;5074690;28;20688;-59
2021/05/16 11:49:23;;;;;;;2.93;0.90;;;28.40;58.40;;;;;;5075043;28;20408;-59
2021/05/16 11:51:49;;;;;;;2.00;0.97;;;28.90;51.40;;;;;;5074945;28;20388;-59
2021/05/16 11:54:14;;;;;;;3.10;1.27;;;27.50;52.70;;;;;;5056874;28;20788;-59
2021/05/16 11:56:44;;;;;;;4.50;1.03;;;27.40;55.40;;;;;;5074748;28;20206;-59
2021/05/16 11:59:10;;;;;;;2.10;0.90;;;27.80;54.80;;;;;;5074852;28;20583;-59
2021/05/16 12:01:38;;;;;;;1.80;0.80;;;27.60;52.60;;;;;;5074346;28;20408;-59
2021/05/16 12:04:17;;;;;;;3.07;1.33;;;28.40;49.90;;;;;;5074664;28;20407;-59
2021/05/16 12:06:47;;;;;;;3.83;1.67;;;28.00;49.60;;;;;;5074520;28;20513;-59
2021/05/16 12:09:18;;;;;;;2.30;1.20;;;26.90;52.40;;;;;;5074780;28;20462;-58
2021/05/16 12:11:52;;;;;;;4.87;1.40;;;25.40;55.70;;;;;;5075246;28;20407;-59
2021/05/16 12:14:19;;;;;;;2.23;1.30;;;25.00;57.60;;;;;;5074370;28;20400;-59
2021/05/16 12:16:59;;;;;;;3.53;1.07;;;24.80;57.30;;;;;;5073939;28;20539;-58
2021/05/16 12:19:31;;;;;;;3.27;1.03;;;24.90;57.80;;;;;;5074349;28;20541;-59
2021/05/16 12:22:02;;;;;;;3.57;1.67;;;24.70;58.30;;;;;;5074269;28;20396;-59
2021/05/16 12:24:46;;;;;;;2.23;1.10;;;24.00;61.30;;;;;;5074460;28;20392;-59
2021/05/16 12:27:16;;;;;;;4.60;1.20;;;23.20;60.80;;;;;;5074080;28;20955;-58
2021/05/16 12:29:44;;;;;;;2.53;1.47;;;22.90;62.50;;;;;;5074211;28;20424;-59
2021/05/16 12:32:10;;;;;;;3.33;1.50;;;22.50;63.50;;;;;;5073596;28;20499;-58
2021/05/16 12:34:37;;;;;;;4.10;1.30;;;22.60;63.20;;;;;;5073724;28;20453;-59
2021/05/16 12:37:17;;;;;;;2.27;1.40;;;22.70;65.00;;;;;;5074332;28;20423;-59
2021/05/16 12:39:47;;;;;;;2.70;1.27;;;22.20;62.00;;;;;;5074138;28;20379;-58
2021/05/16 12:42:41;;;;;;;2.53;1.50;;;21.90;63.30;;;;;;5074264;28;20384;-59
2021/05/16 12:45:20;;;;;;;2.60;1.03;;;22.00;65.40;;;;;;5073829;28;20384;-59
2021/05/16 12:48:14;;;;;;;1.70;1.03;;;21.80;64.20;;;;;;5076277;28;20445;-59
2021/05/16 12:50:52;;;;;;;3.63;1.47;;;21.90;65.80;;;;;;5072429;28;20420;-59
2021/05/16 12:53:26;;;;;;;2.10;1.20;;;22.00;67.70;;;;;;5073563;28;20383;-59